sensor_id;sensor_type;location;lat;lon;timestamp;pressure;altitude;pressure_sealevel;temperature;humidity
63500;BME280;49654;51.142;14.924;2023-05-27T00:01:26;100259.44;;;9.15;67.55
63500;BME280;49654;51.142;14.924;2023-05-27T00:03:53;100287.91;;;9.24;67.29
63500;BME280;49654;51.142;14.924;2023-05-27T00:06:20;100259.03;;;9.00;67.25
63500;BME280;49654;51.142;14.924;2023-05-27T00:08:47;100248.53;;;8.82;67.25
63500;BME280;49654;51.142;14.924;2023-05-27T00:11:15;100283.84;;;9.02;67.57
63500;BME280;49654;51.142;14.924;2023-05-27T00:13:42;100279.63;;;8.92;68.01
63500;BME280;49654;51.142;14.924;2023-05-27T00:16:09;100242.81;;;8.59;68.26
63500;BME280;49654;51.142;14.924;2023-05-27T00:18:36;100231.91;;;8.56;68.30
63500;BME280;49654;51.142;14.924;2023-05-27T00:21:04;100273.91;;;8.78;68.59
63500;BME280;49654;51.142;14.924;2023-05-27T00:23:31;100225.63;;;8.48;68.96
63500;BME280;49654;51.142;14.924;2023-05-27T00:25:58;100283.56;;;8.86;69.37
63500;BME280;49654;51.142;14.924;2023-05-27T00:28:26;100224.13;;;8.46;69.70
63500;BME280;49654;51.142;14.924;2023-05-27T00:30:54;100205.84;;;8.38;69.21
63500;BME280;49654;51.142;14.924;2023-05-27T00:33:21;100276.91;;;8.84;68.96
63500;BME280;49654;51.142;14.924;2023-05-27T00:35:48;100255.34;;;8.64;68.69
63500;BME280;49654;51.142;14.924;2023-05-27T00:38:15;100276.34;;;8.70;68.02
63500;BME280;49654;51.142;14.924;2023-05-27T00:40:43;100273.72;;;8.61;68.15
63500;BME280;49654;51.142;14.924;2023-05-27T00:43:10;100242.88;;;8.28;67.75
63500;BME280;49654;51.142;14.924;2023-05-27T00:45:38;100249.50;;;8.21;68.38
63500;BME280;49654;51.142;14.924;2023-05-27T00:48:05;100224.41;;;7.93;68.74
63500;BME280;49654;51.142;14.924;2023-05-27T00:50:32;100236.88;;;7.88;69.07
63500;BME280;49654;51.142;14.924;2023-05-27T00:53:00;100222.25;;;7.67;68.90
63500;BME280;49654;51.142;14.924;2023-05-27T00:55:28;100240.66;;;7.74;69.93
63500;BME280;49654;51.142;14.924;2023-05-27T00:57:55;100292.63;;;8.01;69.97
63500;BME280;49654;51.142;14.924;2023-05-27T01:00:22;100284.97;;;7.90;69.06
63500;BME280;49654;51.142;14.924;2023-05-27T01:02:51;100240.88;;;7.61;69.76
63500;BME280;49654;51.142;14.924;2023-05-27T01:05:18;100232.41;;;7.49;69.84
63500;BME280;49654;51.142;14.924;2023-05-27T01:08:08;100269.88;;;7.65;69.48
63500;BME280;49654;51.142;14.924;2023-05-27T01:10:41;100232.03;;;7.33;69.33
63500;BME280;49654;51.142;14.924;2023-05-27T01:13:15;100198.31;;;7.14;70.04
63500;BME280;49654;51.142;14.924;2023-05-27T01:15:44;100146.81;;;6.70;69.71
63500;BME280;49654;51.142;14.924;2023-05-27T01:18:15;100233.53;;;7.36;70.44
63500;BME280;49654;51.142;14.924;2023-05-27T01:20:47;100248.34;;;7.34;70.23
63500;BME280;49654;51.142;14.924;2023-05-27T01:23:16;100224.91;;;7.25;69.93
63500;BME280;49654;51.142;14.924;2023-05-27T01:25:43;100261.69;;;7.39;69.45
63500;BME280;49654;51.142;14.924;2023-05-27T01:28:10;100256.19;;;7.32;69.49
63500;BME280;49654;51.142;14.924;2023-05-27T01:30:37;100225.97;;;7.02;69.70
63500;BME280;49654;51.142;14.924;2023-05-27T01:33:08;100225.53;;;6.97;70.21
63500;BME280;49654;51.142;14.924;2023-05-27T01:35:40;100264.91;;;7.31;71.01
63500;BME280;49654;51.142;14.924;2023-05-27T01:38:13;100211.41;;;7.01;70.78
63500;BME280;49654;51.142;14.924;2023-05-27T01:40:43;100179.75;;;6.78;70.32
63500;BME280;49654;51.142;14.924;2023-05-27T01:43:12;100191.09;;;6.87;69.88
63500;BME280;49654;51.142;14.924;2023-05-27T01:45:39;100236.75;;;7.07;69.63
63500;BME280;49654;51.142;14.924;2023-05-27T01:48:06;100219.31;;;6.99;70.31
63500;BME280;49654;51.142;14.924;2023-05-27T01:50:35;100246.34;;;7.16;70.46
63500;BME280;49654;51.142;14.924;2023-05-27T01:53:02;100190.00;;;6.68;70.04
63500;BME280;49654;51.142;14.924;2023-05-27T01:55:30;100241.66;;;7.10;70.74
63500;BME280;49654;51.142;14.924;2023-05-27T01:57:58;100180.78;;;6.75;69.36
63500;BME280;49654;51.142;14.924;2023-05-27T02:00:25;100168.34;;;6.60;69.85
63500;BME280;49654;51.142;14.924;2023-05-27T02:02:52;100152.31;;;6.45;69.94
63500;BME280;49654;51.142;14.924;2023-05-27T02:05:19;100238.22;;;6.89;70.34
63500;BME280;49654;51.142;14.924;2023-05-27T02:07:46;100236.84;;;6.85;70.63
63500;BME280;49654;51.142;14.924;2023-05-27T02:10:13;100212.16;;;6.71;71.39
63500;BME280;49654;51.142;14.924;2023-05-27T02:12:40;100156.81;;;6.32;71.20
63500;BME280;49654;51.142;14.924;2023-05-27T02:15:09;100247.13;;;6.96;71.04
63500;BME280;49654;51.142;14.924;2023-05-27T02:17:36;100086.25;;;5.89;70.71
63500;BME280;49654;51.142;14.924;2023-05-27T02:20:04;100198.59;;;6.58;71.63
63500;BME280;49654;51.142;14.924;2023-05-27T02:22:31;100132.81;;;6.20;70.07
63500;BME280;49654;51.142;14.924;2023-05-27T02:24:58;100185.66;;;6.37;70.13
63500;BME280;49654;51.142;14.924;2023-05-27T02:27:25;100189.41;;;6.33;70.48
63500;BME280;49654;51.142;14.924;2023-05-27T02:29:52;100238.84;;;6.60;70.92
63500;BME280;49654;51.142;14.924;2023-05-27T02:32:20;100253.59;;;6.69;71.54
63500;BME280;49654;51.142;14.924;2023-05-27T02:34:47;100228.31;;;6.52;71.60
63500;BME280;49654;51.142;14.924;2023-05-27T02:37:15;100246.31;;;6.63;71.23
63500;BME280;49654;51.142;14.924;2023-05-27T02:39:42;100236.50;;;6.46;71.24
63500;BME280;49654;51.142;14.924;2023-05-27T02:42:08;100204.81;;;6.23;70.87
63500;BME280;49654;51.142;14.924;2023-05-27T02:44:36;100175.78;;;5.98;71.30
63500;BME280;49654;51.142;14.924;2023-05-27T02:47:03;100240.28;;;6.42;71.54
63500;BME280;49654;51.142;14.924;2023-05-27T02:49:32;100225.28;;;6.36;71.99
63500;BME280;49654;51.142;14.924;2023-05-27T02:51:59;100195.81;;;6.17;71.57
63500;BME280;49654;51.142;14.924;2023-05-27T02:54:26;100241.94;;;6.43;71.18
63500;BME280;49654;51.142;14.924;2023-05-27T02:56:53;100184.56;;;6.07;71.17
63500;BME280;49654;51.142;14.924;2023-05-27T02:59:20;100212.19;;;6.27;71.83
63500;BME280;49654;51.142;14.924;2023-05-27T03:01:47;100227.28;;;6.32;70.60
63500;BME280;49654;51.142;14.924;2023-05-27T03:04:14;100201.50;;;6.21;71.35
63500;BME280;49654;51.142;14.924;2023-05-27T03:06:43;100229.50;;;6.37;71.19
63500;BME280;49654;51.142;14.924;2023-05-27T03:09:10;100174.00;;;5.99;71.58
63500;BME280;49654;51.142;14.924;2023-05-27T03:11:37;100194.13;;;6.16;71.47
63500;BME280;49654;51.142;14.924;2023-05-27T03:14:04;100246.25;;;6.42;71.44
63500;BME280;49654;51.142;14.924;2023-05-27T03:16:31;100234.91;;;6.34;71.50
63500;BME280;49654;51.142;14.924;2023-05-27T03:18:58;100260.44;;;6.48;70.90
63500;BME280;49654;51.142;14.924;2023-05-27T03:21:25;100253.06;;;6.43;71.30
63500;BME280;49654;51.142;14.924;2023-05-27T03:23:53;100257.06;;;6.36;71.31
63500;BME280;49654;51.142;14.924;2023-05-27T03:26:20;100225.44;;;6.23;71.58
63500;BME280;49654;51.142;14.924;2023-05-27T03:28:47;100255.06;;;6.40;71.50
63500;BME280;49654;51.142;14.924;2023-05-27T03:31:14;100256.34;;;6.45;71.91
63500;BME280;49654;51.142;14.924;2023-05-27T03:33:41;100259.97;;;6.54;71.92
63500;BME280;49654;51.142;14.924;2023-05-27T03:36:08;100259.59;;;6.59;71.91
63500;BME280;49654;51.142;14.924;2023-05-27T03:38:35;100269.00;;;6.60;71.73
63500;BME280;49654;51.142;14.924;2023-05-27T03:41:03;100264.28;;;6.65;71.59
63500;BME280;49654;51.142;14.924;2023-05-27T03:43:30;100244.81;;;6.61;71.37
63500;BME280;49654;51.142;14.924;2023-05-27T03:45:57;100271.16;;;6.75;71.43
63500;BME280;49654;51.142;14.924;2023-05-27T03:48:24;100270.34;;;6.75;71.66
63500;BME280;49654;51.142;14.924;2023-05-27T03:50:51;100261.53;;;6.77;72.16
63500;BME280;49654;51.142;14.924;2023-05-27T03:53:18;100269.50;;;6.86;72.54
63500;BME280;49654;51.142;14.924;2023-05-27T03:55:45;100272.97;;;6.96;72.71
63500;BME280;49654;51.142;14.924;2023-05-27T03:58:13;100252.88;;;6.99;71.99
63500;BME280;49654;51.142;14.924;2023-05-27T04:00:40;100267.09;;;7.15;71.72
63500;BME280;49654;51.142;14.924;2023-05-27T04:03:07;100270.59;;;7.25;72.08
63500;BME280;49654;51.142;14.924;2023-05-27T04:05:34;100267.78;;;7.28;72.07
63500;BME280;49654;51.142;14.924;2023-05-27T04:08:01;100261.03;;;7.37;72.29
63500;BME280;49654;51.142;14.924;2023-05-27T04:10:28;100279.16;;;7.46;72.64
63500;BME280;49654;51.142;14.924;2023-05-27T04:12:55;100252.50;;;7.46;72.52
63500;BME280;49654;51.142;14.924;2023-05-27T04:15:23;100284.44;;;7.66;72.46
63500;BME280;49654;51.142;14.924;2023-05-27T04:17:51;100279.03;;;7.78;72.78
63500;BME280;49654;51.142;14.924;2023-05-27T04:20:19;100228.50;;;7.65;72.87
63500;BME280;49654;51.142;14.924;2023-05-27T04:22:46;100275.91;;;8.06;73.07
63500;BME280;49654;51.142;14.924;2023-05-27T04:25:13;100277.31;;;8.19;73.32
63500;BME280;49654;51.142;14.924;2023-05-27T04:27:39;100209.13;;;7.90;73.06
63500;BME280;49654;51.142;14.924;2023-05-27T04:30:07;100272.50;;;8.45;73.08
63500;BME280;49654;51.142;14.924;2023-05-27T04:32:36;100267.06;;;8.58;73.38
63500;BME280;49654;51.142;14.924;2023-05-27T04:35:04;100280.03;;;8.77;72.58
63500;BME280;49654;51.142;14.924;2023-05-27T04:37:33;100277.03;;;8.92;71.73
63500;BME280;49654;51.142;14.924;2023-05-27T04:40:02;100275.94;;;9.04;71.29
63500;BME280;49654;51.142;14.924;2023-05-27T04:42:31;100269.53;;;9.18;71.05
63500;BME280;49654;51.142;14.924;2023-05-27T04:44:58;100273.59;;;9.30;71.00
63500;BME280;49654;51.142;14.924;2023-05-27T04:47:25;100278.75;;;9.40;71.12
63500;BME280;49654;51.142;14.924;2023-05-27T04:49:54;100280.25;;;9.52;71.38
63500;BME280;49654;51.142;14.924;2023-05-27T04:52:20;100285.81;;;9.57;71.14
63500;BME280;49654;51.142;14.924;2023-05-27T04:54:49;100287.69;;;9.74;71.40
63500;BME280;49654;51.142;14.924;2023-05-27T04:57:16;100284.59;;;9.98;70.92
63500;BME280;49654;51.142;14.924;2023-05-27T04:59:44;100280.34;;;9.97;70.87
63500;BME280;49654;51.142;14.924;2023-05-27T05:02:44;100279.19;;;10.19;71.59
63500;BME280;49654;51.142;14.924;2023-05-27T05:05:15;100279.81;;;10.31;71.74
63500;BME280;49654;51.142;14.924;2023-05-27T05:07:43;100277.03;;;10.60;71.63
63500;BME280;49654;51.142;14.924;2023-05-27T05:10:11;100278.81;;;10.77;71.15
63500;BME280;49654;51.142;14.924;2023-05-27T05:12:38;100258.19;;;10.76;70.76
63500;BME280;49654;51.142;14.924;2023-05-27T05:15:07;100278.81;;;10.95;70.48
63500;BME280;49654;51.142;14.924;2023-05-27T05:17:34;100283.88;;;11.15;70.22
63500;BME280;49654;51.142;14.924;2023-05-27T05:20:01;100270.63;;;11.08;70.29
63500;BME280;49654;51.142;14.924;2023-05-27T05:22:30;100283.13;;;11.48;69.00
63500;BME280;49654;51.142;14.924;2023-05-27T05:24:57;100287.38;;;11.49;68.67
63500;BME280;49654;51.142;14.924;2023-05-27T05:27:24;100283.59;;;11.70;68.09
63500;BME280;49654;51.142;14.924;2023-05-27T05:29:51;100151.97;;;10.99;67.56
63500;BME280;49654;51.142;14.924;2023-05-27T05:32:18;100247.94;;;11.62;66.94
63500;BME280;49654;51.142;14.924;2023-05-27T05:34:45;100290.53;;;11.87;66.73
63500;BME280;49654;51.142;14.924;2023-05-27T05:37:12;100285.50;;;11.94;67.43
63500;BME280;49654;51.142;14.924;2023-05-27T05:39:41;100272.47;;;11.86;67.54
63500;BME280;49654;51.142;14.924;2023-05-27T05:42:09;100291.78;;;12.09;66.54
63500;BME280;49654;51.142;14.924;2023-05-27T05:44:35;100299.97;;;12.22;66.38
63500;BME280;49654;51.142;14.924;2023-05-27T05:47:03;100299.16;;;12.22;66.21
63500;BME280;49654;51.142;14.924;2023-05-27T05:49:29;100298.41;;;12.38;65.93
63500;BME280;49654;51.142;14.924;2023-05-27T05:51:56;100297.78;;;12.52;66.02
63500;BME280;49654;51.142;14.924;2023-05-27T05:54:23;100311.81;;;12.59;65.35
63500;BME280;49654;51.142;14.924;2023-05-27T05:56:52;100306.25;;;12.62;65.64
63500;BME280;49654;51.142;14.924;2023-05-27T05:59:19;100276.25;;;12.50;64.76
63500;BME280;49654;51.142;14.924;2023-05-27T06:01:46;100318.31;;;12.71;63.87
63500;BME280;49654;51.142;14.924;2023-05-27T06:04:13;100297.16;;;12.74;64.25
63500;BME280;49654;51.142;14.924;2023-05-27T06:06:40;100282.19;;;12.76;63.76
63500;BME280;49654;51.142;14.924;2023-05-27T06:09:07;100320.69;;;13.07;62.87
63500;BME280;49654;51.142;14.924;2023-05-27T06:11:34;100314.97;;;13.12;62.71
63500;BME280;49654;51.142;14.924;2023-05-27T06:14:02;100312.19;;;12.97;62.73
63500;BME280;49654;51.142;14.924;2023-05-27T06:16:29;100314.16;;;13.11;63.52
63500;BME280;49654;51.142;14.924;2023-05-27T06:18:56;100307.63;;;13.32;63.39
63500;BME280;49654;51.142;14.924;2023-05-27T06:21:23;100305.53;;;13.43;62.18
63500;BME280;49654;51.142;14.924;2023-05-27T06:23:50;100271.13;;;13.32;61.41
63500;BME280;49654;51.142;14.924;2023-05-27T06:26:17;100308.91;;;13.68;60.44
63500;BME280;49654;51.142;14.924;2023-05-27T06:28:44;100305.81;;;13.73;60.80
63500;BME280;49654;51.142;14.924;2023-05-27T06:31:12;100311.47;;;13.93;60.92
63500;BME280;49654;51.142;14.924;2023-05-27T06:33:41;100318.63;;;13.99;61.06
63500;BME280;49654;51.142;14.924;2023-05-27T06:36:08;100315.69;;;14.02;60.17
63500;BME280;49654;51.142;14.924;2023-05-27T06:38:35;100320.72;;;14.03;60.91
63500;BME280;49654;51.142;14.924;2023-05-27T06:41:02;100315.44;;;14.20;60.29
63500;BME280;49654;51.142;14.924;2023-05-27T06:43:29;100309.53;;;14.26;59.11
63500;BME280;49654;51.142;14.924;2023-05-27T06:45:56;100309.94;;;14.46;59.89
63500;BME280;49654;51.142;14.924;2023-05-27T06:48:24;100308.97;;;14.39;58.78
63500;BME280;49654;51.142;14.924;2023-05-27T06:50:51;100300.94;;;14.57;59.15
63500;BME280;49654;51.142;14.924;2023-05-27T06:53:18;100309.59;;;14.57;59.34
63500;BME280;49654;51.142;14.924;2023-05-27T06:55:45;100307.53;;;14.67;59.24
63500;BME280;49654;51.142;14.924;2023-05-27T06:58:12;100290.06;;;14.68;56.90
63500;BME280;49654;51.142;14.924;2023-05-27T07:00:39;100306.63;;;14.83;58.41
63500;BME280;49654;51.142;14.924;2023-05-27T07:03:06;100308.09;;;15.09;58.56
63500;BME280;49654;51.142;14.924;2023-05-27T07:05:34;100252.59;;;14.75;57.02
63500;BME280;49654;51.142;14.924;2023-05-27T07:08:01;100308.31;;;15.37;56.96
63500;BME280;49654;51.142;14.924;2023-05-27T07:10:28;100311.53;;;15.24;55.40
63500;BME280;49654;51.142;14.924;2023-05-27T07:12:55;100313.34;;;15.23;55.38
63500;BME280;49654;51.142;14.924;2023-05-27T07:15:22;100296.97;;;15.44;56.15
63500;BME280;49654;51.142;14.924;2023-05-27T07:17:49;100311.31;;;15.86;55.73
63500;BME280;49654;51.142;14.924;2023-05-27T07:20:16;100308.13;;;16.06;54.63
63500;BME280;49654;51.142;14.924;2023-05-27T07:22:44;100294.72;;;16.30;53.78
63500;BME280;49654;51.142;14.924;2023-05-27T07:25:11;100294.22;;;16.20;52.83
63500;BME280;49654;51.142;14.924;2023-05-27T07:27:38;100298.28;;;15.93;51.90
63500;BME280;49654;51.142;14.924;2023-05-27T07:30:06;100298.44;;;15.62;54.17
63500;BME280;49654;51.142;14.924;2023-05-27T07:32:33;100297.94;;;15.28;54.49
63500;BME280;49654;51.142;14.924;2023-05-27T07:35:00;100299.72;;;15.13;54.62
63500;BME280;49654;51.142;14.924;2023-05-27T07:37:27;100297.84;;;15.22;52.93
63500;BME280;49654;51.142;14.924;2023-05-27T07:39:57;100306.03;;;15.57;53.05
63500;BME280;49654;51.142;14.924;2023-05-27T07:42:24;100299.31;;;15.77;52.19
63500;BME280;49654;51.142;14.924;2023-05-27T07:44:51;100294.06;;;16.07;52.09
63500;BME280;49654;51.142;14.924;2023-05-27T07:47:17;100293.59;;;16.03;49.98
63500;BME280;49654;51.142;14.924;2023-05-27T07:49:44;100296.31;;;15.95;51.37
63500;BME280;49654;51.142;14.924;2023-05-27T07:52:11;100289.97;;;16.04;50.84
63500;BME280;49654;51.142;14.924;2023-05-27T07:54:38;100287.72;;;16.16;51.63
63500;BME280;49654;51.142;14.924;2023-05-27T07:57:06;100265.22;;;16.43;48.54
63500;BME280;49654;51.142;14.924;2023-05-27T07:59:33;100283.59;;;16.64;49.13
63500;BME280;49654;51.142;14.924;2023-05-27T08:02:00;100258.19;;;16.65;47.66
63500;BME280;49654;51.142;14.924;2023-05-27T08:04:27;100275.13;;;17.05;48.94
63500;BME280;49654;51.142;14.924;2023-05-27T08:06:54;100271.63;;;16.98;48.34
63500;BME280;49654;51.142;14.924;2023-05-27T08:09:21;100276.25;;;17.17;47.31
63500;BME280;49654;51.142;14.924;2023-05-27T08:11:48;100277.63;;;17.13;47.62
63500;BME280;49654;51.142;14.924;2023-05-27T08:14:16;100278.28;;;16.72;47.65
63500;BME280;49654;51.142;14.924;2023-05-27T08:16:45;100275.47;;;16.59;46.71
63500;BME280;49654;51.142;14.924;2023-05-27T08:19:12;100278.03;;;16.89;48.71
63500;BME280;49654;51.142;14.924;2023-05-27T08:21:39;100277.63;;;17.13;47.83
63500;BME280;49654;51.142;14.924;2023-05-27T08:24:06;100271.38;;;17.14;46.57
63500;BME280;49654;51.142;14.924;2023-05-27T08:26:33;100274.16;;;17.69;48.45
63500;BME280;49654;51.142;14.924;2023-05-27T08:29:00;100267.94;;;17.76;44.74
63500;BME280;49654;51.142;14.924;2023-05-27T08:31:28;100266.38;;;17.82;44.22
63500;BME280;49654;51.142;14.924;2023-05-27T08:33:55;100266.28;;;18.10;45.27
63500;BME280;49654;51.142;14.924;2023-05-27T08:36:22;100263.69;;;18.17;46.12
63500;BME280;49654;51.142;14.924;2023-05-27T08:38:49;100254.75;;;18.05;45.31
63500;BME280;49654;51.142;14.924;2023-05-27T08:41:16;100253.34;;;18.09;45.76
63500;BME280;49654;51.142;14.924;2023-05-27T08:43:43;100234.56;;;17.70;46.31
63500;BME280;49654;51.142;14.924;2023-05-27T08:46:12;100246.56;;;18.34;46.57
63500;BME280;49654;51.142;14.924;2023-05-27T08:48:41;100244.16;;;18.46;45.31
63500;BME280;49654;51.142;14.924;2023-05-27T08:51:09;100251.00;;;18.34;44.63
63500;BME280;49654;51.142;14.924;2023-05-27T08:53:36;100233.00;;;17.76;45.83
63500;BME280;49654;51.142;14.924;2023-05-27T08:56:04;100246.19;;;17.83;43.29
63500;BME280;49654;51.142;14.924;2023-05-27T08:58:32;100250.84;;;17.87;46.90
63500;BME280;49654;51.142;14.924;2023-05-27T09:00:59;100247.41;;;17.87;44.80
63500;BME280;49654;51.142;14.924;2023-05-27T09:03:27;100253.47;;;17.94;45.31
63500;BME280;49654;51.142;14.924;2023-05-27T09:05:56;100219.16;;;17.95;44.75
63500;BME280;49654;51.142;14.924;2023-05-27T09:08:23;100246.97;;;18.38;43.06
63500;BME280;49654;51.142;14.924;2023-05-27T09:10:50;100247.22;;;18.56;43.76
63500;BME280;49654;51.142;14.924;2023-05-27T09:13:25;100239.00;;;18.11;41.59
63500;BME280;49654;51.142;14.924;2023-05-27T09:15:58;100221.00;;;18.15;43.56
63500;BME280;49654;51.142;14.924;2023-05-27T09:18:27;100231.66;;;18.68;43.05
63500;BME280;49654;51.142;14.924;2023-05-27T09:20:57;100139.09;;;17.50;43.46
63500;BME280;49654;51.142;14.924;2023-05-27T09:23:24;100169.44;;;18.14;45.13
63500;BME280;49654;51.142;14.924;2023-05-27T09:25:52;100216.91;;;18.73;43.52
63500;BME280;49654;51.142;14.924;2023-05-27T09:28:22;100172.75;;;18.56;42.69
63500;BME280;49654;51.142;14.924;2023-05-27T09:30:59;100211.47;;;18.07;43.19
63500;BME280;49654;51.142;14.924;2023-05-27T09:33:27;100228.97;;;18.41;42.81
63500;BME280;49654;51.142;14.924;2023-05-27T09:35:54;100174.34;;;18.57;43.75
63500;BME280;49654;51.142;14.924;2023-05-27T09:38:22;100223.16;;;19.19;39.77
63500;BME280;49654;51.142;14.924;2023-05-27T09:40:49;100190.16;;;18.63;41.25
63500;BME280;49654;51.142;14.924;2023-05-27T09:43:16;100201.50;;;18.84;42.08
63500;BME280;49654;51.142;14.924;2023-05-27T09:45:44;100128.03;;;18.75;42.60
63500;BME280;49654;51.142;14.924;2023-05-27T09:48:12;100211.72;;;19.51;42.78
63500;BME280;49654;51.142;14.924;2023-05-27T09:50:40;100136.06;;;19.20;40.23
63500;BME280;49654;51.142;14.924;2023-05-27T09:53:07;100211.53;;;20.49;39.70
63500;BME280;49654;51.142;14.924;2023-05-27T09:55:36;100189.44;;;21.56;36.29
63500;BME280;49654;51.142;14.924;2023-05-27T09:58:03;100140.53;;;21.95;36.10
63500;BME280;49654;51.142;14.924;2023-05-27T10:00:31;100150.66;;;23.34;33.47
63500;BME280;49654;51.142;14.924;2023-05-27T10:03:00;100190.47;;;25.59;30.13
63500;BME280;49654;51.142;14.924;2023-05-27T10:05:28;100111.78;;;26.55;28.61
63500;BME280;49654;51.142;14.924;2023-05-27T10:07:55;100195.56;;;27.74;27.97
63500;BME280;49654;51.142;14.924;2023-05-27T10:10:23;100155.44;;;26.91;28.48
63500;BME280;49654;51.142;14.924;2023-05-27T10:12:51;100191.41;;;27.31;26.38
63500;BME280;49654;51.142;14.924;2023-05-27T10:15:24;100166.88;;;26.86;26.70
63500;BME280;49654;51.142;14.924;2023-05-27T10:17:53;100167.69;;;26.87;27.54
63500;BME280;49654;51.142;14.924;2023-05-27T10:20:26;100106.06;;;25.06;28.31
63500;BME280;49654;51.142;14.924;2023-05-27T10:22:53;100162.28;;;25.14;29.57
63500;BME280;49654;51.142;14.924;2023-05-27T10:25:20;100179.66;;;24.21;31.22
63500;BME280;49654;51.142;14.924;2023-05-27T10:27:48;100159.25;;;23.64;32.80
63500;BME280;49654;51.142;14.924;2023-05-27T10:30:18;100139.09;;;22.11;35.37
63500;BME280;49654;51.142;14.924;2023-05-27T10:32:48;100149.94;;;21.61;35.85
63500;BME280;49654;51.142;14.924;2023-05-27T10:35:16;100105.38;;;20.22;36.46
63500;BME280;49654;51.142;14.924;2023-05-27T10:37:43;100160.06;;;19.95;38.76
63500;BME280;49654;51.142;14.924;2023-05-27T10:40:11;100128.59;;;20.07;39.30
63500;BME280;49654;51.142;14.924;2023-05-27T10:42:39;100098.50;;;19.45;38.45
63500;BME280;49654;51.142;14.924;2023-05-27T10:45:08;100154.16;;;20.07;40.47
63500;BME280;49654;51.142;14.924;2023-05-27T10:47:38;100169.59;;;20.85;39.56
63500;BME280;49654;51.142;14.924;2023-05-27T10:50:12;100114.56;;;20.13;36.72
63500;BME280;49654;51.142;14.924;2023-05-27T10:52:40;100138.75;;;20.04;40.08
63500;BME280;49654;51.142;14.924;2023-05-27T10:55:07;100158.97;;;21.53;36.54
63500;BME280;49654;51.142;14.924;2023-05-27T10:57:35;100139.13;;;22.22;36.45
63500;BME280;49654;51.142;14.924;2023-05-27T11:00:04;100113.84;;;22.73;37.50
63500;BME280;49654;51.142;14.924;2023-05-27T11:02:38;100124.03;;;23.00;34.15
63500;BME280;49654;51.142;14.924;2023-05-27T11:05:09;100112.59;;;24.59;30.83
63500;BME280;49654;51.142;14.924;2023-05-27T11:07:37;100108.28;;;26.49;29.20
63500;BME280;49654;51.142;14.924;2023-05-27T11:10:06;100081.91;;;28.04;26.58
63500;BME280;49654;51.142;14.924;2023-05-27T11:12:34;100147.34;;;28.62;26.10
63500;BME280;49654;51.142;14.924;2023-05-27T11:15:01;100134.56;;;29.29;24.00
63500;BME280;49654;51.142;14.924;2023-05-27T11:17:28;100138.16;;;28.99;25.62
63500;BME280;49654;51.142;14.924;2023-05-27T11:19:57;100117.22;;;29.22;24.16
63500;BME280;49654;51.142;14.924;2023-05-27T11:22:24;100100.41;;;30.63;22.79
63500;BME280;49654;51.142;14.924;2023-05-27T11:24:58;100103.06;;;30.39;22.84
63500;BME280;49654;51.142;14.924;2023-05-27T11:27:32;100072.84;;;29.15;23.11
63500;BME280;49654;51.142;14.924;2023-05-27T11:30:06;100071.75;;;28.01;25.68
63500;BME280;49654;51.142;14.924;2023-05-27T11:32:35;100108.47;;;31.30;23.66
63500;BME280;49654;51.142;14.924;2023-05-27T11:35:04;100084.44;;;33.10;19.89
63500;BME280;49654;51.142;14.924;2023-05-27T11:37:34;100085.50;;;31.61;19.43
63500;BME280;49654;51.142;14.924;2023-05-27T11:40:01;100047.22;;;32.76;19.53
63500;BME280;49654;51.142;14.924;2023-05-27T11:42:28;100096.03;;;31.58;22.66
63500;BME280;49654;51.142;14.924;2023-05-27T11:44:56;100101.31;;;33.52;20.00
63500;BME280;49654;51.142;14.924;2023-05-27T11:47:25;100094.72;;;34.66;18.78
63500;BME280;49654;51.142;14.924;2023-05-27T11:49:52;100077.97;;;34.46;18.15
63500;BME280;49654;51.142;14.924;2023-05-27T11:52:24;100097.91;;;35.68;17.40
63500;BME280;49654;51.142;14.924;2023-05-27T11:54:51;100038.72;;;34.80;16.74
63500;BME280;49654;51.142;14.924;2023-05-27T11:57:18;100005.03;;;35.90;16.63
63500;BME280;49654;51.142;14.924;2023-05-27T11:59:45;100082.53;;;37.34;14.41
63500;BME280;49654;51.142;14.924;2023-05-27T12:02:12;100045.81;;;38.48;14.75
63500;BME280;49654;51.142;14.924;2023-05-27T12:04:39;100064.66;;;37.21;15.96
63500;BME280;49654;51.142;14.924;2023-05-27T12:07:06;100067.88;;;35.35;17.76
63500;BME280;49654;51.142;14.924;2023-05-27T12:09:34;100072.00;;;36.70;17.41
63500;BME280;49654;51.142;14.924;2023-05-27T12:12:01;100055.94;;;37.15;15.73
63500;BME280;49654;51.142;14.924;2023-05-27T12:14:28;100044.53;;;38.09;14.14
63500;BME280;49654;51.142;14.924;2023-05-27T12:16:55;100040.34;;;38.73;14.21
63500;BME280;49654;51.142;14.924;2023-05-27T12:19:22;100039.44;;;37.95;14.72
63500;BME280;49654;51.142;14.924;2023-05-27T12:21:49;100039.34;;;38.65;14.53
63500;BME280;49654;51.142;14.924;2023-05-27T12:24:16;100023.13;;;40.09;13.46
63500;BME280;49654;51.142;14.924;2023-05-27T12:26:46;100054.22;;;39.08;14.28
63500;BME280;49654;51.142;14.924;2023-05-27T12:29:13;100042.75;;;38.62;13.83
63500;BME280;49654;51.142;14.924;2023-05-27T12:31:40;100040.34;;;38.73;13.54
63500;BME280;49654;51.142;14.924;2023-05-27T12:34:07;100045.19;;;39.60;13.58
63500;BME280;49654;51.142;14.924;2023-05-27T12:36:34;100044.88;;;38.93;14.95
63500;BME280;49654;51.142;14.924;2023-05-27T12:39:02;100039.00;;;38.54;14.57
63500;BME280;49654;51.142;14.924;2023-05-27T12:41:29;100019.78;;;38.72;14.36
63500;BME280;49654;51.142;14.924;2023-05-27T12:43:58;100029.72;;;37.94;13.39
63500;BME280;49654;51.142;14.924;2023-05-27T12:46:25;100036.31;;;38.30;14.42